Ischia Jet — IOBI — position and weather

sailwx.info

Track history (hours):
 
Tides and Currents Weather Stations Pressure Air Temp Water Temp Dewpoint Dewpoint Depression Visibility Wind Speed Wind Dir Waves Ship Positions

Ischia Jet

Last reported at 2016-Aug-24 17:23 UTC. Time now 2016-Aug-25 22:03 UTC.
Position N 40°42' E 014°29'.

Length 42 m; draft 1.2 m.

Type: Passenger vessel. MMSI: 247048700.

Date/timePositionNaut miles runAvg speedWind from/ knotsBaromVisibWave heightAir tempDewpointWater temp
2016-Aug-24 17:23N 40°42' E 014°29'910.8
2016-Aug-24 16:33N 40°37' E 014°19'6 2.7
2016-Aug-24 14:23N 40°35' E 014°26'7 8.8
2016-Aug-24 13:33N 40°36' E 014°16'15 7.2
2016-Aug-24 11:32N 40°50' E 014°16'1716.4
2016-Aug-24 10:30N 40°33' E 014°14'10 9.7
2016-Aug-24 09:26N 40°36' E 014°28'4 3.9
2016-Aug-24 08:27N 40°36' E 014°33'1415.9
2016-Aug-24 07:33N 40°33' E 014°14'1413.7
2016-Aug-24 06:34N 40°42' E 014°28'0 0.0
2016-Aug-23 17:12N 40°42' E 014°29'6 9.0
2016-Aug-23 16:33N 40°38' E 014°22'5 2.5
2016-Aug-23 14:28N 40°37' E 014°29'1212.6
2016-Aug-23 13:33N 40°34' E 014°15'16 7.9
2016-Aug-23 11:33N 40°49' E 014°17'1615.9
2016-Aug-23 10:33N 40°33' E 014°14'8 7.8
2016-Aug-23 09:31N 40°35' E 014°25'6 5.6
2016-Aug-23 08:25N 40°36' E 014°33'1416.5
2016-Aug-23 07:33N 40°33' E 014°14'1413.5
2016-Aug-23 06:33N 40°42' E 014°29'0 0.1
2016-Aug-23 05:33N 40°42' E 014°29'0 0.0
2016-Aug-22 15:17N 40°42' E 014°29'811.0
2016-Aug-22 14:33N 40°37' E 014°20'5 5.4
2016-Aug-22 13:34N 40°34' E 014°15'1 0.5
2016-Aug-22 11:33N 40°34' E 014°16'16 0.7
2016-Aug-21 13:31N 40°50' E 014°16'0 0.0
2016-Aug-21 12:31N 40°50' E 014°16'0 0.1
2016-Aug-21 09:24N 40°50' E 014°16'1719.6
2016-Aug-21 08:33N 40°33' E 014°14'8 7.6
2016-Aug-21 07:33N 40°38' E 014°23'0 0.2
2016-Aug-21 06:33N 40°38' E 014°22'6 5.9
2016-Aug-21 05:33N 40°42' E 014°29'0 0.0
2016-Aug-20 15:04N 40°42' E 014°29'611.5
2016-Aug-20 14:34N 40°38' E 014°23'8 7.6
2016-Aug-20 13:33N 40°33' E 014°14'8 7.7
2016-Aug-20 12:34N 40°38' E 014°23'8 7.6
2016-Aug-20 11:33N 40°33' E 014°14'7 7.4
2016-Aug-20 10:33N 40°41' E 014°17'10 8.8
2016-Aug-20 09:28N 40°50' E 014°16'1718.1
2016-Aug-20 08:33N 40°33' E 014°14'8 7.7
2016-Aug-20 07:33N 40°38' E 014°23'0 0.0
2016-Aug-20 06:34N 40°38' E 014°23'6 5.8
2016-Aug-20 05:33N 40°42' E 014°29'0 0.0
2016-Aug-19 16:33N 40°42' E 014°28'1413.8
2016-Aug-19 15:33N 40°33' E 014°14'8 7.7
2016-Aug-19 14:34N 40°38' E 014°23'8 7.5
2016-Aug-19 13:33N 40°33' E 014°14'8 7.7
2016-Aug-19 12:33N 40°38' E 014°22'8 7.6
2016-Aug-19 11:33N 40°33' E 014°14'6 5.9
2016-Aug-19 10:34N 40°39' E 014°17'11 9.3
2016-Aug-19 09:22N 40°50' E 014°16'1720.5
2016-Aug-19 08:33N 40°33' E 014°14'8 7.7
2016-Aug-19 07:34N 40°38' E 014°23'0 0.5
2016-Aug-19 06:33N 40°38' E 014°22'6 5.9
2016-Aug-19 05:33N 40°42' E 014°29'0 0.0
2016-Aug-18 16:12N 40°42' E 014°29'1 2.0
2016-Aug-18 15:34N 40°42' E 014°27'1 1.2
2016-Aug-18 14:33N 40°42' E 014°29'0 0.0
2016-Aug-18 13:33N 40°42' E 014°29'3 3.0
2016-Aug-18 12:34N 40°41' E 014°25'1110.5
2016-Aug-18 11:31N 40°33' E 014°14'7 7.1
2016-Aug-18 10:33N 40°40' E 014°17'10 9.3
2016-Aug-18 09:29N 40°50' E 014°16'1717.3
2016-Aug-18 08:31N 40°33' E 014°14'8 7.9
2016-Aug-18 07:33N 40°38' E 014°23'0 0.0
2016-Aug-18 06:33N 40°38' E 014°23'6 5.9
2016-Aug-18 05:33N 40°42' E 014°29'6 0.5
2016-Aug-17 16:33N 40°38' E 014°23'5 2.5
2016-Aug-17 14:32N 40°38' E 014°29'1211.5
2016-Aug-17 13:30N 40°33' E 014°14'8 8.1
2016-Aug-17 12:33N 40°38' E 014°23'7 7.4
2016-Aug-17 11:33N 40°34' E 014°15'2 2.2
2016-Aug-17 10:33N 40°35' E 014°13'1 0.6
2016-Aug-17 09:33N 40°35' E 014°13'2 2.2
2016-Aug-17 08:33N 40°33' E 014°15'7 7.4
2016-Aug-17 07:33N 40°38' E 014°23'0 0.0
2016-Aug-17 06:31N 40°38' E 014°23'6 6.1
2016-Aug-17 05:33N 40°42' E 014°29'0 0.0
2016-Aug-16 16:19N 40°42' E 014°29'1312.1
2016-Aug-16 15:16N 40°50' E 014°16'1318.3
2016-Aug-16 14:33N 40°38' E 014°23'8 7.3
2016-Aug-16 13:31N 40°33' E 014°14'8 8.1
2016-Aug-16 12:33N 40°38' E 014°23'8 7.7
2016-Aug-16 11:33N 40°33' E 014°14'9 8.6
2016-Aug-16 10:33N 40°42' E 014°17'8 7.4
2016-Aug-16 09:26N 40°50' E 014°16'1719.1
2016-Aug-16 08:33N 40°33' E 014°14'8 7.7
2016-Aug-16 07:33N 40°38' E 014°23'6 0.4
2016-Aug-15 16:24N 40°42' E 014°29'1313.0
2016-Aug-15 15:26N 40°50' E 014°16'1719.2
2016-Aug-15 14:33N 40°33' E 014°14'0 0.0
2016-Aug-15 13:33N 40°33' E 014°14'8 7.6
2016-Aug-15 12:32N 40°38' E 014°23'8 7.9
2016-Aug-15 11:33N 40°33' E 014°14'7 6.8
2016-Aug-15 10:34N 40°40' E 014°16'10 8.9
2016-Aug-15 09:25N 40°50' E 014°16'1719.1
2016-Aug-15 08:33N 40°33' E 014°14'8 7.9
2016-Aug-15 07:34N 40°38' E 014°23'0 0.3
2016-Aug-15 06:33N 40°38' E 014°22'  
Track history (hours):
 
Tides and Currents Weather Stations Pressure Air Temp Water Temp Dewpoint Dewpoint Depression Visibility Wind Speed Wind Dir Waves Ship Positions

Ischia Jet

Last reported at 2016-Aug-24 17:23 UTC. Time now 2016-Aug-25 22:03 UTC.
Position N 40°42' E 014°29'.

Length 42 m; draft 1.2 m.

Type: Passenger vessel. MMSI: 247048700.

Date/timePositionNaut miles runAvg speedWind from/ knotsBaromVisibWave heightAir tempDewpointWater temp
2016-Aug-24 17:23N 40°42' E 014°29'910.8
2016-Aug-24 16:33N 40°37' E 014°19'6 2.7
2016-Aug-24 14:23N 40°35' E 014°26'7 8.8
2016-Aug-24 13:33N 40°36' E 014°16'15 7.2
2016-Aug-24 11:32N 40°50' E 014°16'1716.4
2016-Aug-24 10:30N 40°33' E 014°14'10 9.7
2016-Aug-24 09:26N 40°36' E 014°28'4 3.9
2016-Aug-24 08:27N 40°36' E 014°33'1415.9
2016-Aug-24 07:33N 40°33' E 014°14'1413.7
2016-Aug-24 06:34N 40°42' E 014°28'0 0.0
2016-Aug-23 17:12N 40°42' E 014°29'6 9.0
2016-Aug-23 16:33N 40°38' E 014°22'5 2.5
2016-Aug-23 14:28N 40°37' E 014°29'1212.6
2016-Aug-23 13:33N 40°34' E 014°15'16 7.9
2016-Aug-23 11:33N 40°49' E 014°17'1615.9
2016-Aug-23 10:33N 40°33' E 014°14'8 7.8
2016-Aug-23 09:31N 40°35' E 014°25'6 5.6
2016-Aug-23 08:25N 40°36' E 014°33'1416.5
2016-Aug-23 07:33N 40°33' E 014°14'1413.5
2016-Aug-23 06:33N 40°42' E 014°29'0 0.1
2016-Aug-23 05:33N 40°42' E 014°29'0 0.0
2016-Aug-22 15:17N 40°42' E 014°29'811.0
2016-Aug-22 14:33N 40°37' E 014°20'5 5.4
2016-Aug-22 13:34N 40°34' E 014°15'1 0.5
2016-Aug-22 11:33N 40°34' E 014°16'16 0.7
2016-Aug-21 13:31N 40°50' E 014°16'0 0.0
2016-Aug-21 12:31N 40°50' E 014°16'0 0.1
2016-Aug-21 09:24N 40°50' E 014°16'1719.6
2016-Aug-21 08:33N 40°33' E 014°14'8 7.6
2016-Aug-21 07:33N 40°38' E 014°23'0 0.2
2016-Aug-21 06:33N 40°38' E 014°22'6 5.9
2016-Aug-21 05:33N 40°42' E 014°29'0 0.0
2016-Aug-20 15:04N 40°42' E 014°29'611.5
2016-Aug-20 14:34N 40°38' E 014°23'8 7.6
2016-Aug-20 13:33N 40°33' E 014°14'8 7.7
2016-Aug-20 12:34N 40°38' E 014°23'8 7.6
2016-Aug-20 11:33N 40°33' E 014°14'7 7.4
2016-Aug-20 10:33N 40°41' E 014°17'10 8.8
2016-Aug-20 09:28N 40°50' E 014°16'1718.1
2016-Aug-20 08:33N 40°33' E 014°14'8 7.7
2016-Aug-20 07:33N 40°38' E 014°23'0 0.0
2016-Aug-20 06:34N 40°38' E 014°23'6 5.8
2016-Aug-20 05:33N 40°42' E 014°29'0 0.0
2016-Aug-19 16:33N 40°42' E 014°28'1413.8
2016-Aug-19 15:33N 40°33' E 014°14'8 7.7
2016-Aug-19 14:34N 40°38' E 014°23'8 7.5
2016-Aug-19 13:33N 40°33' E 014°14'8 7.7
2016-Aug-19 12:33N 40°38' E 014°22'8 7.6
2016-Aug-19 11:33N 40°33' E 014°14'6 5.9
2016-Aug-19 10:34N 40°39' E 014°17'11 9.3
2016-Aug-19 09:22N 40°50' E 014°16'1720.5
2016-Aug-19 08:33N 40°33' E 014°14'8 7.7
2016-Aug-19 07:34N 40°38' E 014°23'0 0.5
2016-Aug-19 06:33N 40°38' E 014°22'6 5.9
2016-Aug-19 05:33N 40°42' E 014°29'0 0.0
2016-Aug-18 16:12N 40°42' E 014°29'1 2.0
2016-Aug-18 15:34N 40°42' E 014°27'1 1.2
2016-Aug-18 14:33N 40°42' E 014°29'0 0.0
2016-Aug-18 13:33N 40°42' E 014°29'3 3.0
2016-Aug-18 12:34N 40°41' E 014°25'1110.5
2016-Aug-18 11:31N 40°33' E 014°14'7 7.1
2016-Aug-18 10:33N 40°40' E 014°17'10 9.3
2016-Aug-18 09:29N 40°50' E 014°16'1717.3
2016-Aug-18 08:31N 40°33' E 014°14'8 7.9
2016-Aug-18 07:33N 40°38' E 014°23'0 0.0
2016-Aug-18 06:33N 40°38' E 014°23'6 5.9
2016-Aug-18 05:33N 40°42' E 014°29'6 0.5
2016-Aug-17 16:33N 40°38' E 014°23'5 2.5
2016-Aug-17 14:32N 40°38' E 014°29'1211.5
2016-Aug-17 13:30N 40°33' E 014°14'8 8.1
2016-Aug-17 12:33N 40°38' E 014°23'7 7.4
2016-Aug-17 11:33N 40°34' E 014°15'2 2.2
2016-Aug-17 10:33N 40°35' E 014°13'1 0.6
2016-Aug-17 09:33N 40°35' E 014°13'2 2.2
2016-Aug-17 08:33N 40°33' E 014°15'7 7.4
2016-Aug-17 07:33N 40°38' E 014°23'0 0.0
2016-Aug-17 06:31N 40°38' E 014°23'6 6.1
2016-Aug-17 05:33N 40°42' E 014°29'0 0.0
2016-Aug-16 16:19N 40°42' E 014°29'1312.1
2016-Aug-16 15:16N 40°50' E 014°16'1318.3
2016-Aug-16 14:33N 40°38' E 014°23'8 7.3
2016-Aug-16 13:31N 40°33' E 014°14'8 8.1
2016-Aug-16 12:33N 40°38' E 014°23'8 7.7
2016-Aug-16 11:33N 40°33' E 014°14'9 8.6
2016-Aug-16 10:33N 40°42' E 014°17'8 7.4
2016-Aug-16 09:26N 40°50' E 014°16'1719.1
2016-Aug-16 08:33N 40°33' E 014°14'8 7.7
2016-Aug-16 07:33N 40°38' E 014°23'6 0.4
2016-Aug-15 16:24N 40°42' E 014°29'1313.0
2016-Aug-15 15:26N 40°50' E 014°16'1719.2
2016-Aug-15 14:33N 40°33' E 014°14'0 0.0
2016-Aug-15 13:33N 40°33' E 014°14'8 7.6
2016-Aug-15 12:32N 40°38' E 014°23'8 7.9
2016-Aug-15 11:33N 40°33' E 014°14'7 6.8
2016-Aug-15 10:34N 40°40' E 014°16'10 8.9
2016-Aug-15 09:25N 40°50' E 014°16'1719.1
2016-Aug-15 08:33N 40°33' E 014°14'8 7.9
2016-Aug-15 07:34N 40°38' E 014°23'0 0.3
2016-Aug-15 06:33N 40°38' E 014°22'  

Dump ship's entire track history